Time;durP1;ratioP1;P1;durP2;ratioP2;P2;SDS_P1;SDS_P2;PMS_P1;PMS_P2;Temp;Humidity;BMP_temperature;BMP_pressure;BME280_temperature;BME280_humidity;BME280_pressure;Samples;Min_cycle;Max_cycle;Signal;HPM_P1;HPM_P2
2021/07/25 00:00:53;;;;;;;9.15;4.82;;;;;;;14.67;87.99;90433.28;4960621;28;20105;-87
2021/07/25 00:03:30;;;;;;;9.20;5.15;;;;;;;14.72;88.45;90409.34;4976441;28;20034;-86
2021/07/25 00:06:03;;;;;;;9.45;5.00;;;;;;;14.55;88.79;90413.34;4976433;28;20033;-85
2021/07/25 00:08:42;;;;;;;7.97;4.57;;;;;;;14.51;88.81;90398.69;4959175;28;20105;-85
2021/07/25 00:11:09;;;;;;;8.15;4.30;;;;;;;14.54;88.22;90403.22;4975604;28;20506;-86
2021/07/25 00:13:47;;;;;;;7.32;4.18;;;;;;;14.52;88.61;90408.06;4993420;28;20041;-85
2021/07/25 00:16:18;;;;;;;6.32;4.60;;;;;;;14.53;88.48;90409.59;4961331;28;20104;-85
2021/07/25 00:19:06;;;;;;;8.32;4.68;;;;;;;14.52;88.64;90405.44;4975511;28;20030;-87
2021/07/25 00:21:36;;;;;;;7.50;4.97;;;;;;;14.51;88.33;90399.44;4977306;28;20033;-85
2021/07/25 00:24:10;;;;;;;7.07;4.57;;;;;;;14.68;87.37;90399.94;4975938;28;20022;-86
2021/07/25 00:26:50;;;;;;;;;;;;;;;14.49;88.33;90414.03;4973304;28;20030;-86
2021/07/25 00:29:28;;;;;;;6.35;4.90;;;;;;;14.42;89.41;90412.09;4980053;28;19917;-85
2021/07/25 00:32:08;;;;;;;7.25;4.65;;;;;;;14.47;89.39;90416.25;5001209;28;20144;-88
2021/07/25 00:34:56;;;;;;;6.97;4.95;;;;;;;14.49;89.68;90425.28;4993428;28;20034;-85
2021/07/25 00:37:38;;;;;;;5.85;4.40;;;;;;;14.51;89.69;90440.66;4992256;28;20049;-85
2021/07/25 00:40:17;;;;;;;7.63;6.03;;;;;;;14.45;89.92;90442.06;4992283;28;20457;-85
2021/07/25 00:42:46;;;;;;;6.38;4.57;;;;;;;14.43;90.10;90444.31;4976186;28;20027;-86
2021/07/25 00:45:23;;;;;;;5.78;4.05;;;;;;;14.62;89.12;90446.72;4991457;28;20030;-85
2021/07/25 00:48:01;;;;;;;7.28;4.22;;;;;;;14.65;88.37;90448.63;4974538;28;20058;-85
2021/07/25 00:50:38;;;;;;;7.25;4.05;;;;;;;14.66;89.10;90426.53;4975986;28;20080;-85
2021/07/25 00:53:19;;;;;;;7.82;4.82;;;;;;;14.54;89.34;90418.97;4992250;28;20030;-85
2021/07/25 00:55:54;;;;;;;7.57;5.22;;;;;;;14.38;89.85;90410.56;4990844;28;20505;-85
2021/07/25 00:58:29;;;;;;;6.45;4.95;;;;;;;14.23;90.80;90399.22;4992022;28;20030;-85
2021/07/25 01:01:03;;;;;;;7.55;5.10;;;;;;;14.29;90.52;90393.28;4990978;28;20022;-86
2021/07/25 01:03:46;;;;;;;8.23;5.43;;;;;;;14.26;91.00;90378.28;4975042;28;20379;-85
2021/07/25 01:06:28;;;;;;;8.00;5.22;;;;;;;14.21;90.77;90370.75;4959530;28;20276;-85
2021/07/25 01:09:07;;;;;;;8.07;5.22;;;;;;;14.19;91.14;90370.34;4976506;28;20034;-85
2021/07/25 01:11:51;;;;;;;6.47;5.13;;;;;;;14.19;91.19;90378.22;4959279;28;20030;-86
2021/07/25 01:14:31;;;;;;;8.27;5.65;;;;;;;14.19;91.02;90380.84;4975795;28;20026;-85
2021/07/25 01:17:30;;;;;;;7.30;4.82;;;;;;;14.25;90.83;90384.63;4959361;28;20030;-85
2021/07/25 01:20:02;;;;;;;5.35;4.05;;;;;;;14.27;90.40;90385.00;4974931;28;20079;-85
2021/07/25 01:22:45;;;;;;;6.65;4.28;;;;;;;14.29;90.32;90385.41;4963052;28;20031;-85
2021/07/25 01:25:18;;;;;;;6.15;4.10;;;;;;;14.38;90.13;90381.72;4984976;28;20014;-85
2021/07/25 01:28:10;;;;;;;6.57;3.92;;;;;;;14.40;89.81;90393.34;4998486;28;20081;-85
2021/07/25 01:30:52;;;;;;;5.45;3.42;;;;;;;14.35;89.99;90402.31;4998231;28;20025;-85
2021/07/25 01:33:28;;;;;;;6.65;4.20;;;;;;;14.57;89.26;90407.75;4982693;28;20034;-85
2021/07/25 01:36:08;;;;;;;7.10;3.97;;;;;;;14.47;89.64;90413.63;4982266;28;20453;-85
2021/07/25 01:38:48;;;;;;;4.47;3.50;;;;;;;14.49;89.57;90414.03;4983877;28;20018;-85
2021/07/25 01:41:26;;;;;;;3.92;3.00;;;;;;;14.61;88.57;90424.25;4983283;28;20029;-85
2021/07/25 01:44:00;;;;;;;9.60;3.70;;;;;;;14.53;89.39;90417.47;4997942;28;20026;-85
2021/07/25 01:46:34;;;;;;;5.82;3.55;;;;;;;14.53;89.66;90402.47;4997625;28;20401;-85
2021/07/25 01:49:22;;;;;;;5.35;3.03;;;;;;;14.47;89.45;90403.16;4981347;28;20034;-85
2021/07/25 01:51:58;;;;;;;3.30;2.60;;;;;;;14.51;89.61;90396.84;4997170;28;20482;-85
2021/07/25 01:54:35;;;;;;;4.63;2.85;;;;;;;14.41;90.03;90378.38;5015067;28;20026;-85
2021/07/25 01:57:13;;;;;;;6.25;2.67;;;;;;;14.35;90.07;90368.25;4982178;28;20033;-85
2021/07/25 01:59:48;;;;;;;3.67;2.70;;;;;;;14.43;90.11;90360.44;5014927;28;20148;-84
2021/07/25 02:02:27;;;;;;;3.70;2.50;;;;;;;14.34;90.49;90356.22;4981385;28;20033;-86
2021/07/25 02:05:06;;;;;;;3.50;2.30;;;;;;;14.37;89.76;90356.63;4997887;28;20420;-85
2021/07/25 02:07:38;;;;;;;2.97;2.30;;;;;;;14.26;89.99;90361.78;4980882;28;20402;-85
2021/07/25 02:10:23;;;;;;;3.30;2.63;;;;;;;14.28;90.31;90355.09;4982119;28;20112;-85
2021/07/25 02:12:59;;;;;;;3.25;2.42;;;;;;;14.28;89.93;90354.34;4982328;28;20121;-85
2021/07/25 02:15:31;;;;;;;3.88;2.88;;;;;;;14.33;90.12;90362.59;4981858;28;20026;-85
2021/07/25 02:18:08;;;;;;;4.93;2.50;;;;;;;14.23;89.94;90357.28;5014430;28;20022;-85
2021/07/25 02:20:44;;;;;;;3.47;2.45;;;;;;;14.28;89.33;90362.94;5014579;28;20050;-85
2021/07/25 02:23:19;;;;;;;6.72;2.40;;;;;;;14.23;89.47;90358.03;4997381;28;20026;-84
2021/07/25 02:25:54;;;;;;;3.85;2.22;;;;;;;14.27;89.48;90348.31;4980248;28;20026;-85
2021/07/25 02:28:29;;;;;;;2.95;2.10;;;;;;;14.23;89.77;90352.03;4996926;28;20026;-85
2021/07/25 02:31:04;;;;;;;3.42;2.47;;;;;;;14.23;89.44;90352.78;4997076;28;20474;-85
2021/07/25 02:33:41;;;;;;;3.38;2.50;;;;;;;14.17;89.39;90364.75;4964709;28;20036;-85
2021/07/25 02:36:16;;;;;;;6.82;2.60;;;;;;;14.13;89.62;90363.19;4981477;28;20453;-87
2021/07/25 02:38:54;;;;;;;4.10;2.83;;;;;;;14.17;90.03;90364.75;4996956;28;20032;-85
2021/07/25 02:41:34;;;;;;;4.82;2.80;;;;;;;14.13;89.93;90368.44;4980898;28;20030;-85
2021/07/25 02:44:14;;;;;;;4.97;2.70;;;;;;;14.13;89.91;90371.78;4996571;28;20036;-85
2021/07/25 02:46:55;;;;;;;5.25;2.92;;;;;;;14.07;89.82;90381.13;4997506;28;20026;-85
2021/07/25 02:49:34;;;;;;;4.53;2.88;;;;;;;14.17;89.83;90374.44;4976267;28;20023;-85
2021/07/25 02:52:18;;;;;;;5.03;2.35;;;;;;;14.17;89.63;90375.22;4976766;28;20121;-85
2021/07/25 02:54:57;;;;;;;4.15;2.50;;;;;;;14.31;88.58;90370.09;4977443;28;20027;-85
2021/07/25 02:57:33;;;;;;;4.00;3.08;;;;;;;14.15;89.53;90363.59;4978104;28;20022;-87
2021/07/25 03:00:11;;;;;;;4.40;3.13;;;;;;;14.10;90.72;90352.31;4977719;28;20026;-85
2021/07/25 03:02:50;;;;;;;5.18;2.95;;;;;;;13.98;90.81;90357.06;4962190;28;20053;-86
2021/07/25 03:05:20;;;;;;;4.20;2.72;;;;;;;13.97;90.92;90340.63;4961322;28;20037;-85
2021/07/25 03:08:01;;;;;;;4.00;2.70;;;;;;;14.01;90.51;90333.53;4960970;28;20572;-85
2021/07/25 03:10:34;;;;;;;5.43;3.15;;;;;;;14.03;90.53;90333.19;4994152;28;20430;-86
2021/07/25 03:13:16;;;;;;;5.03;2.92;;;;;;;14.12;89.99;90346.72;4992825;28;20048;-85
2021/07/25 03:15:46;;;;;;;3.97;2.83;;;;;;;14.11;90.15;90338.09;4977750;28;20080;-85
2021/07/25 03:18:26;;;;;;;4.13;2.60;;;;;;;14.04;90.36;90355.66;4976711;28;20386;-85
2021/07/25 03:20:58;;;;;;;3.47;2.65;;;;;;;14.10;90.19;90362.81;4993155;28;20052;-85
2021/07/25 03:23:36;;;;;;;4.68;2.60;;;;;;;14.11;89.94;90366.19;4993980;28;20486;-85
2021/07/25 03:26:04;;;;;;;4.60;3.28;;;;;;;14.14;89.60;90375.94;4961547;28;20058;-86
2021/07/25 03:28:35;;;;;;;3.92;2.85;;;;;;;14.11;89.48;90361.69;5047248;23;20067;-88
2021/07/25 03:31:14;;;;;;;4.25;2.80;;;;;;;14.12;89.74;90367.69;4995641;28;20517;-87
2021/07/25 03:33:53;;;;;;;5.50;3.10;;;;;;;13.98;90.21;90370.19;4996474;28;20125;-88
2021/07/25 03:36:32;;;;;;;3.67;2.95;;;;;;;14.03;90.10;90365.38;5011336;28;20077;-88
2021/07/25 03:39:02;;;;;;;4.30;2.92;;;;;;;14.01;90.70;90369.47;4996177;28;20029;-88
2021/07/25 03:41:39;;;;;;;4.57;2.88;;;;;;;14.04;90.63;90371.34;4995422;28;20032;-87
2021/07/25 03:44:10;;;;;;;4.60;3.10;;;;;;;13.96;91.07;90367.19;4994573;28;20021;-87
2021/07/25 03:46:47;;;;;;;5.85;3.40;;;;;;;13.95;91.15;90378.75;5011564;28;20049;-88
2021/07/25 03:49:25;;;;;;;7.20;3.65;;;;;;;13.97;90.68;90371.31;4979195;28;20116;-87
2021/07/25 03:52:04;;;;;;;4.75;3.53;;;;;;;14.01;90.64;90369.47;5011329;28;20030;-87
2021/07/25 03:54:44;;;;;;;5.20;3.53;;;;;;;14.03;91.07;90369.88;4995092;28;20029;-88
2021/07/25 03:57:24;;;;;;;4.60;3.35;;;;;;;14.04;90.50;90366.13;4995916;28;20486;-86
2021/07/25 04:00:02;;;;;;;4.10;3.22;;;;;;;14.05;90.81;90357.88;4995630;28;20053;-87
2021/07/25 04:02:44;;;;;;;4.43;3.50;;;;;;;14.13;90.60;90361.31;4979960;28;20029;-87
2021/07/25 04:05:25;;;;;;;4.65;3.33;;;;;;;14.15;90.68;90366.97;4996104;28;20112;-87
2021/07/25 04:07:58;;;;;;;5.43;4.13;;;;;;;14.13;90.86;90371.78;5010879;28;20109;-87
2021/07/25 04:10:34;;;;;;;5.32;3.78;;;;;;;14.22;90.30;90356.53;4978853;28;20387;-87
2021/07/25 04:13:16;;;;;;;6.10;4.38;;;;;;;14.33;89.67;90357.34;4994861;28;20022;-88
2021/07/25 04:15:54;;;;;;;6.60;4.28;;;;;;;14.36;89.40;90340.16;5010905;28;20030;-87
2021/07/25 04:18:36;;;;;;;5.57;3.80;;;;;;;14.37;89.36;90325.19;4995412;28;20017;-87
2021/07/25 04:21:13;;;;;;;7.03;4.40;;;;;;;14.42;89.08;90333.47;4995320;28;20544;-88
2021/07/25 04:23:53;;;;;;;5.72;4.20;;;;;;;14.38;89.38;90342.41;5010794;28;20021;-88
2021/07/25 04:26:27;;;;;;;5.75;4.15;;;;;;;14.33;89.84;90335.63;5011491;28;20030;-88
2021/07/25 04:29:04;;;;;;;6.38;3.85;;;;;;;14.37;89.07;90351.38;4994778;28;20026;-87
2021/07/25 04:31:47;;;;;;;7.47;3.88;;;;;;;14.38;89.37;90348.41;4978565;28;20033;-87
2021/07/25 04:34:24;;;;;;;6.15;4.20;;;;;;;14.31;90.19;90354.38;4995461;28;20493;-88
2021/07/25 04:36:58;;;;;;;6.90;4.20;;;;;;;14.33;89.77;90367.84;5010738;28;20509;-87
2021/07/25 04:39:32;;;;;;;;;;;;;;;14.49;88.74;90372.09;4995244;28;20084;-87
2021/07/25 04:42:10;;;;;;;7.45;4.00;;;;;;;14.40;89.11;90361.16;5026895;28;20282;-87
2021/07/25 04:44:58;;;;;;;5.88;3.90;;;;;;;14.38;89.43;90372.00;4995425;28;20053;-87
2021/07/25 04:47:40;;;;;;;7.15;4.47;;;;;;;14.42;88.85;90370.16;4995735;28;20022;-87
2021/07/25 04:50:21;;;;;;;6.03;4.13;;;;;;;14.51;88.84;90373.22;4979607;28;20029;-87
2021/07/25 04:52:57;;;;;;;5.20;4.18;;;;;;;14.54;88.30;90387.50;4995729;28;20105;-88
2021/07/25 04:55:30;;;;;;;8.60;4.72;;;;;;;14.51;88.64;90399.44;4978299;28;20050;-88
2021/07/25 04:58:13;;;;;;;6.30;4.65;;;;;;;14.55;88.67;90399.47;4978748;28;20076;-87
2021/07/25 05:00:48;;;;;;;5.05;4.30;;;;;;;14.55;87.69;90394.97;5010047;28;20406;-87
2021/07/25 05:03:25;;;;;;;8.73;4.28;;;;;;;14.64;87.19;90396.56;4978697;28;20057;-87
2021/07/25 05:06:04;;;;;;;5.20;3.85;;;;;;;14.57;87.44;90397.25;4995036;28;20030;-87
2021/07/25 05:08:39;;;;;;;6.25;4.22;;;;;;;14.59;86.74;90397.63;4994647;28;20038;-88
2021/07/25 05:11:19;;;;;;;5.63;4.35;;;;;;;14.58;87.25;90388.25;4978556;28;20034;-88
2021/07/25 05:14:06;;;;;;;5.90;4.00;;;;;;;14.48;88.56;90387.03;4994501;28;20474;-87
2021/07/25 05:17:03;;;;;;;6.95;4.25;;;;;;;14.57;87.16;90371.03;5010205;28;20101;-87
2021/07/25 05:19:55;;;;;;;6.57;4.68;;;;;;;14.52;88.38;90353.00;4995499;28;20026;-88
2021/07/25 05:22:52;;;;;;;6.72;5.05;;;;;;;14.48;89.28;90346.97;5000422;28;20116;-87
2021/07/25 05:25:32;;;;;;;6.20;5.13;;;;;;;14.41;89.98;90339.06;4982712;28;20475;-88
2021/07/25 05:28:05;;;;;;;6.68;4.47;;;;;;;14.40;90.51;90350.66;4978586;28;20406;-88
2021/07/25 05:30:47;;;;;;;8.02;4.90;;;;;;;14.44;90.14;90351.44;4993890;28;20041;-87
2021/07/25 05:33:25;;;;;;;8.30;4.63;;;;;;;14.61;88.97;90340.34;4994737;28;20068;-87
2021/07/25 05:36:03;;;;;;;7.28;4.60;;;;;;;14.58;89.21;90335.81;4994391;28;20505;-88
2021/07/25 05:38:42;;;;;;;7.65;4.38;;;;;;;14.51;89.30;90347.03;5010112;28;20026;-87
2021/07/25 05:41:15;;;;;;;6.85;4.80;;;;;;;14.49;90.22;90349.25;5009936;28;20067;-86
2021/07/25 05:43:49;;;;;;;6.60;4.57;;;;;;;14.49;90.17;90323.03;4994324;28;20603;-88
2021/07/25 05:46:27;;;;;;;6.90;4.63;;;;;;;14.50;90.65;90308.06;4994591;28;20021;-87
2021/07/25 05:49:02;;;;;;;6.55;4.50;;;;;;;14.50;90.48;90314.06;4993598;28;20026;-88
2021/07/25 05:51:38;;;;;;;6.50;5.13;;;;;;;14.44;91.21;90317.34;5009521;28;20033;-88
2021/07/25 05:54:10;;;;;;;6.88;4.75;;;;;;;14.53;91.06;90317.84;4978129;28;20038;-88
2021/07/25 05:56:45;;;;;;;7.28;5.57;;;;;;;14.65;90.26;90314.88;5010015;28;20030;-87
2021/07/25 05:59:22;;;;;;;6.97;4.50;;;;;;;14.64;89.51;90313.41;4994061;28;20018;-87
2021/07/25 06:01:58;;;;;;;6.45;3.92;;;;;;;14.65;89.06;90314.88;5009856;28;20018;-87
2021/07/25 06:04:40;;;;;;;6.15;4.53;;;;;;;14.68;89.45;90318.66;4978418;28;20026;-88
2021/07/25 06:07:16;;;;;;;5.93;3.90;;;;;;;14.67;89.33;90333.66;4995445;28;20433;-87
2021/07/25 06:09:49;;;;;;;5.68;4.03;;;;;;;14.69;89.23;90330.63;4997286;28;20099;-88
2021/07/25 06:12:24;;;;;;;7.43;3.97;;;;;;;14.76;88.71;90341.16;4981591;28;20116;-88
2021/07/25 06:15:03;;;;;;;5.22;3.88;;;;;;;14.87;89.08;90336.72;5014410;28;20041;-87
2021/07/25 06:17:34;;;;;;;5.85;4.25;;;;;;;14.91;88.94;90342.75;4997300;28;20030;-88
2021/07/25 06:20:18;;;;;;;4.78;3.80;;;;;;;14.94;88.56;90349.88;4981015;28;20076;-87
2021/07/25 06:22:56;;;;;;;6.85;4.30;;;;;;;14.95;89.29;90348.03;5014363;28;20030;-88
2021/07/25 06:25:33;;;;;;;6.28;4.15;;;;;;;15.11;88.38;90350.34;4990226;28;20036;-88
2021/07/25 06:28:12;;;;;;;5.10;3.97;;;;;;;15.11;88.58;90340.59;4976919;28;20026;-87
2021/07/25 06:30:52;;;;;;;7.45;4.05;;;;;;;15.27;86.97;90335.03;4978025;28;20458;-89
2021/07/25 06:33:29;;;;;;;5.55;4.30;;;;;;;15.13;87.48;90346.22;4978190;28;20027;-87
2021/07/25 06:36:09;;;;;;;5.15;4.20;;;;;;;15.08;88.66;90351.81;4961784;28;20614;-88
2021/07/25 06:38:45;;;;;;;5.78;3.70;;;;;;;15.17;88.04;90365.38;4978498;28;20022;-87
2021/07/25 06:41:25;;;;;;;4.63;3.70;;;;;;;15.23;87.71;90363.13;4961430;28;20054;-88
2021/07/25 06:44:00;;;;;;;5.50;4.30;;;;;;;15.24;88.89;90375.91;4992798;28;20121;-88
2021/07/25 06:46:32;;;;;;;7.45;4.15;;;;;;;15.29;88.37;90378.16;4961964;28;20038;-88
2021/07/25 06:49:07;;;;;;;7.07;4.78;;;;;;;15.20;88.78;90369.13;4992742;28;20027;-88
2021/07/25 06:51:41;;;;;;;5.63;4.10;;;;;;;15.17;88.13;90368.00;4992640;28;20034;-88
2021/07/25 06:54:14;;;;;;;;;;;;;;;15.19;88.16;90365.72;4961516;28;20030;-87
2021/07/25 06:56:53;;;;;;;5.82;4.05;;;;;;;15.13;87.48;90364.59;4992990;28;19953;-90
2021/07/25 06:59:31;;;;;;;5.57;3.85;;;;;;;15.10;89.07;90365.34;4977101;28;20105;-86
2021/07/25 07:02:11;;;;;;;7.35;4.38;;;;;;;15.07;88.83;90360.81;4992692;28;20022;-87
2021/07/25 07:04:49;;;;;;;5.45;4.15;;;;;;;15.06;89.94;90370.56;4977506;28;20030;-88
2021/07/25 07:07:28;;;;;;;5.97;4.32;;;;;;;15.07;90.33;90371.31;4977399;28;20394;-86
2021/07/25 07:10:01;;;;;;;5.82;4.30;;;;;;;15.03;89.92;90367.94;4993905;28;20022;-89
2021/07/25 07:12:27;;;;;;;5.65;4.57;;;;;;;15.15;89.54;90364.97;4965967;28;20034;-88
2021/07/25 07:15:05;;;;;;;6.47;4.60;;;;;;;15.22;89.46;90362.38;4980269;28;20092;-89
2021/07/25 07:17:41;;;;;;;6.38;4.60;;;;;;;15.27;89.46;90343.66;4992205;28;20475;-87
2021/07/25 07:20:17;;;;;;;5.78;4.30;;;;;;;15.28;88.88;90339.91;5007248;28;20034;-89
2021/07/25 07:23:09;;;;;;;6.38;4.25;;;;;;;15.37;89.10;90336.19;5013531;28;20165;-89
2021/07/25 07:25:45;;;;;;;6.90;4.43;;;;;;;15.46;88.83;90308.44;5011941;28;20026;-86
2021/07/25 07:28:22;;;;;;;7.43;4.68;;;;;;;15.48;88.68;90314.09;5012544;28;20025;-86
2021/07/25 07:31:00;;;;;;;6.18;3.95;;;;;;;15.56;88.00;90317.47;4995534;28;20030;-86
2021/07/25 07:33:34;;;;;;;5.40;4.18;;;;;;;15.56;87.18;90311.50;5012116;28;20616;-89
2021/07/25 07:36:03;;;;;;;6.40;4.72;;;;;;;15.68;86.95;90313.78;4995414;28;20029;-87
2021/07/25 07:38:29;;;;;;;6.93;4.40;;;;;;;15.71;86.64;90329.53;4984263;28;20402;-87
2021/07/25 07:41:05;;;;;;;5.78;4.50;;;;;;;15.69;86.71;90331.81;4977740;28;20033;-87
2021/07/25 07:43:42;;;;;;;6.80;3.55;;;;;;;15.62;85.83;90321.25;5011794;28;20085;-86
2021/07/25 07:46:14;;;;;;;5.28;4.00;;;;;;;15.84;86.64;90327.31;5012059;28;20378;-89
2021/07/25 07:48:47;;;;;;;5.28;3.85;;;;;;;15.77;86.08;90322.81;5010838;28;20033;-88
2021/07/25 07:51:28;;;;;;;5.03;3.70;;;;;;;15.85;86.80;90317.56;5011363;28;20042;-86
2021/07/25 07:54:01;;;;;;;6.60;4.35;;;;;;;15.87;87.14;90312.69;5012556;28;20053;-89
2021/07/25 07:56:33;;;;;;;4.72;3.92;;;;;;;15.82;87.52;90324.31;4995950;28;20025;-87
2021/07/25 07:59:00;;;;;;;5.45;3.63;;;;;;;15.88;86.98;90340.47;5010872;28;20041;-87
2021/07/25 08:01:40;;;;;;;4.43;3.20;;;;;;;15.95;86.49;90343.09;4994338;28;20018;-87
2021/07/25 08:04:11;;;;;;;4.40;3.33;;;;;;;15.85;86.87;90355.09;4980517;28;20026;-86
2021/07/25 08:06:44;;;;;;;4.20;3.15;;;;;;;15.86;86.64;90356.56;4976526;28;20050;-88
2021/07/25 08:09:25;;;;;;;4.35;3.10;;;;;;;15.84;87.17;90358.09;4987509;28;20025;-87
2021/07/25 08:12:03;;;;;;;4.80;3.17;;;;;;;15.93;86.93;90368.97;5004890;28;20042;-89
2021/07/25 08:14:32;;;;;;;5.38;3.10;;;;;;;16.00;86.31;90376.88;4979021;28;20064;-88
2021/07/25 08:17:03;;;;;;;6.05;3.20;;;;;;;15.95;86.28;90378.00;4994914;28;20056;-88
2021/07/25 08:19:38;;;;;;;4.40;3.13;;;;;;;15.85;86.42;90380.59;4978401;28;20034;-88
2021/07/25 08:22:19;;;;;;;4.22;2.90;;;;;;;15.77;86.08;90385.84;4994063;28;20030;-88
2021/07/25 08:24:47;;;;;;;4.25;2.90;;;;;;;15.79;86.74;90388.09;4978651;28;20125;-88
2021/07/25 08:27:24;;;;;;;5.10;3.08;;;;;;;15.78;87.15;90389.22;5010568;28;20054;-88
2021/07/25 08:29:57;;;;;;;4.30;3.42;;;;;;;15.78;87.21;90394.47;4994173;28;20026;-88
2021/07/25 08:32:30;;;;;;;6.10;3.13;;;;;;;15.74;87.97;90396.34;5010069;28;20518;-88
2021/07/25 08:35:09;;;;;;;5.73;3.43;;;;;;;15.72;86.31;90394.09;5010706;28;20379;-88
2021/07/25 08:37:53;;;;;;;4.63;3.15;;;;;;;15.63;86.39;90393.66;4995062;28;20030;-88
2021/07/25 08:40:27;;;;;;;5.65;3.10;;;;;;;15.54;87.44;90388.00;5011073;28;20501;-88
2021/07/25 08:43:12;;;;;;;5.00;3.28;;;;;;;15.54;87.46;90388.00;4994054;28;20037;-88
2021/07/25 08:45:52;;;;;;;6.90;3.50;;;;;;;15.52;86.89;90390.25;5009742;28;20364;-86
2021/07/25 08:48:27;;;;;;;6.75;3.70;;;;;;;15.43;87.72;90389.84;5011587;28;20026;-89
2021/07/25 08:51:12;;;;;;;5.15;3.35;;;;;;;15.42;86.76;90393.59;4975483;28;20042;-91
2021/07/25 08:53:41;;;;;;;4.78;3.53;;;;;;;15.35;86.92;90390.94;4975498;28;20517;-86
2021/07/25 08:56:12;;;;;;;5.95;3.30;;;;;;;15.46;85.59;90394.34;4984846;28;20032;-87
2021/07/25 08:58:44;;;;;;;6.82;3.17;;;;;;;15.34;85.73;90398.06;4995237;28;20397;-86
2021/07/25 09:01:24;;;;;;;4.85;3.10;;;;;;;15.30;85.90;90403.31;4987382;28;20483;-89
2021/07/25 09:04:03;;;;;;;5.18;2.97;;;;;;;15.21;84.90;90408.13;4973946;28;20038;-90
2021/07/25 09:06:55;;;;;;;6.50;3.40;;;;;;;15.17;85.56;90412.59;4995007;28;20113;-89
2021/07/25 09:09:33;;;;;;;4.55;3.20;;;;;;;15.22;84.44;90414.13;5011036;28;20018;-87
2021/07/25 09:12:01;;;;;;;4.68;2.90;;;;;;;15.54;82.61;90409.75;4993774;28;20036;-85
2021/07/25 09:14:40;;;;;;;6.05;3.30;;;;;;;15.35;83.06;90401.44;5010483;28;20028;-86
2021/07/25 09:17:20;;;;;;;4.78;3.20;;;;;;;15.22;84.24;90404.38;5010429;28;20026;-87
2021/07/25 09:20:24;;;;;;;5.70;3.00;;;;;;;15.19;84.31;90402.47;4994525;28;20117;-88
2021/07/25 09:22:58;;;;;;;5.65;3.30;;;;;;;15.01;84.64;90399.00;5010395;28;20413;-88
2021/07/25 09:25:38;;;;;;;7.25;3.03;;;;;;;14.89;85.16;90407.94;5010017;28;20474;-87
2021/07/25 09:28:13;;;;;;;6.55;3.13;;;;;;;14.81;85.50;90401.91;4978164;28;20049;-88
2021/07/25 09:30:43;;;;;;;4.47;3.10;;;;;;;14.88;84.80;90401.22;5012940;23;20094;-88
2021/07/25 09:33:32;;;;;;;6.35;3.45;;;;;;;14.78;85.72;90402.66;4989293;28;20065;-86
2021/07/25 09:36:14;;;;;;;4.85;3.50;;;;;;;14.72;83.82;90383.13;4975021;28;20049;-90
2021/07/25 09:38:49;;;;;;;4.28;3.10;;;;;;;14.70;86.05;90385.38;5006418;28;20062;-87
2021/07/25 09:41:29;;;;;;;8.68;4.00;;;;;;;14.59;86.75;90376.66;4991853;28;20399;-88
2021/07/25 09:44:08;;;;;;;6.20;3.80;;;;;;;14.91;84.45;90373.47;4977903;28;20030;-88
2021/07/25 09:46:53;;;;;;;6.47;3.33;;;;;;;14.72;85.45;90370.00;5009591;28;20026;-89
2021/07/25 09:49:32;;;;;;;8.60;3.70;;;;;;;14.82;85.79;90371.19;4993198;28;20061;-88
2021/07/25 09:52:07;;;;;;;8.10;4.47;;;;;;;14.72;86.42;90377.13;4977463;28;20030;-89
2021/07/25 09:54:46;;;;;;;8.20;4.20;;;;;;;15.01;87.59;90370.91;4993856;28;20030;-90
2021/07/25 09:57:25;;;;;;;7.07;4.10;;;;;;;15.19;87.43;90385.97;4993901;28;20088;-87
2021/07/25 09:59:55;;;;;;;5.97;3.72;;;;;;;15.21;87.52;90387.13;4992655;28;20022;-87
2021/07/25 10:02:43;;;;;;;4.97;3.67;;;;;;;15.26;87.38;90381.53;4993472;28;20022;-87
2021/07/25 10:05:11;;;;;;;4.50;3.13;;;;;;;15.25;86.31;90380.00;4994332;28;20072;-88
2021/07/25 10:07:38;;;;;;;5.82;3.85;;;;;;;15.23;86.19;90377.03;5010636;28;20034;-90
2021/07/25 10:10:08;;;;;;;8.85;3.95;;;;;;;15.19;86.08;90367.59;4994296;28;20033;-89
2021/07/25 10:12:40;;;;;;;5.05;3.40;;;;;;;15.16;86.66;90369.13;5011016;28;20030;-87
2021/07/25 10:15:20;;;;;;;4.85;3.58;;;;;;;15.19;84.94;90370.22;4994320;28;20036;-87
2021/07/25 10:17:58;;;;;;;5.22;3.35;;;;;;;15.15;85.33;90359.72;4994000;28;20073;-87
2021/07/25 10:20:25;;;;;;;5.75;3.78;;;;;;;14.96;85.08;90352.16;5009037;28;20483;-87
2021/07/25 10:22:57;;;;;;;6.75;4.25;;;;;;;15.02;86.14;90353.31;4993832;28;20411;-87
2021/07/25 10:25:31;;;;;;;7.15;3.88;;;;;;;15.08;85.30;90357.06;5010934;28;20109;-88
2021/07/25 10:28:11;;;;;;;5.25;3.65;;;;;;;15.07;85.26;90356.31;4979261;28;20034;-87
2021/07/25 10:30:47;;;;;;;5.40;3.58;;;;;;;15.03;86.79;90357.44;4994995;28;20034;-87
2021/07/25 10:33:27;;;;;;;7.22;4.20;;;;;;;15.06;86.54;90356.69;5012373;28;20027;-87
2021/07/25 10:35:58;;;;;;;5.88;3.80;;;;;;;15.11;86.06;90376.59;4994070;28;20410;-86
2021/07/25 10:38:35;;;;;;;6.25;3.60;;;;;;;15.07;87.45;90390.44;4995035;28;20021;-87
2021/07/25 10:41:00;;;;;;;5.13;3.50;;;;;;;15.13;87.19;90390.84;4992985;28;20113;-87
2021/07/25 10:43:26;;;;;;;6.18;3.80;;;;;;;15.13;87.25;90403.97;4977234;28;20036;-86
2021/07/25 10:46:21;;;;;;;7.65;3.97;;;;;;;15.19;86.39;90427.97;4978810;28;20033;-86
2021/07/25 10:49:05;;;;;;;4.38;3.53;;;;;;;15.20;86.55;90414.50;5030010;28;20030;-93
2021/07/25 10:51:31;;;;;;;6.40;3.78;;;;;;;15.29;86.13;90409.66;5020489;28;20015;-91
2021/07/25 10:54:22;;;;;;;6.20;3.40;;;;;;;15.42;85.62;90402.22;5013819;28;20030;-86
2021/07/25 10:57:04;;;;;;;6.85;3.75;;;;;;;15.38;86.31;90405.97;4996286;28;20022;-87
2021/07/25 11:00:08;;;;;;;6.05;3.40;;;;;;;15.33;86.66;90414.91;5009788;28;20026;-87
2021/07/25 11:02:50;;;;;;;4.97;3.42;;;;;;;15.39;86.31;90415.31;4993118;28;20514;-86
2021/07/25 11:05:18;;;;;;;7.20;3.85;;;;;;;15.33;86.87;90414.16;4996355;28;20030;-89
2021/07/25 11:07:59;;;;;;;5.93;3.42;;;;;;;15.27;85.90;90411.91;4996973;28;20084;-86
2021/07/25 11:10:32;;;;;;;5.97;3.97;;;;;;;15.08;85.27;90391.19;5009056;28;20025;-86
2021/07/25 11:12:58;;;;;;;5.43;3.85;;;;;;;15.02;86.12;90392.66;4993353;28;20570;-87
2021/07/25 11:15:34;;;;;;;6.00;3.95;;;;;;;15.06;86.51;90393.44;4994785;28;20110;-89
2021/07/25 11:18:06;;;;;;;6.07;3.88;;;;;;;15.11;86.79;90390.44;4994840;28;20054;-87
2021/07/25 11:20:50;;;;;;;6.63;4.20;;;;;;;15.15;87.49;90387.84;4993694;28;20030;-87
2021/07/25 11:23:23;;;;;;;6.68;4.20;;;;;;;15.25;87.82;90395.75;4994463;28;20486;-87
2021/07/25 11:25:57;;;;;;;5.32;3.63;;;;;;;15.31;87.31;90390.91;5003663;28;20548;-89
2021/07/25 11:28:49;;;;;;;5.00;3.85;;;;;;;15.32;86.52;90397.66;4996276;28;20022;-87
2021/07/25 11:31:20;;;;;;;5.03;3.78;;;;;;;15.55;86.54;90415.78;4995572;28;20065;-86
2021/07/25 11:33:47;;;;;;;6.38;3.65;;;;;;;15.63;85.09;90427.06;5012230;28;20021;-86
2021/07/25 11:36:13;;;;;;;5.53;3.90;;;;;;;15.63;84.19;90434.94;4980788;28;20021;-86
2021/07/25 11:38:42;;;;;;;6.20;3.45;;;;;;;15.65;83.12;90430.78;5012953;28;20022;-85
2021/07/25 11:41:08;;;;;;;5.53;3.90;;;;;;;15.59;83.62;90432.28;5011887;28;20025;-91
2021/07/25 11:43:50;;;;;;;5.85;4.10;;;;;;;15.57;84.90;90437.16;5012042;28;20026;-89
2021/07/25 11:46:52;;;;;;;5.30;3.67;;;;;;;15.64;85.23;90434.56;4995565;28;20113;-86
2021/07/25 11:49:33;;;;;;;6.38;3.85;;;;;;;15.84;85.76;90421.16;4998590;28;20028;-86
2021/07/25 11:52:13;;;;;;;5.38;3.92;;;;;;;15.80;85.77;90423.75;5012078;28;20036;-86
2021/07/25 11:54:53;;;;;;;7.97;4.57;;;;;;;15.86;86.44;90408.38;5012405;28;20096;-86
2021/07/25 11:57:24;;;;;;;5.07;3.85;;;;;;;15.96;85.72;90408.41;4997055;28;20026;-88
2021/07/25 11:59:53;;;;;;;6.10;4.03;;;;;;;16.09;83.85;90408.81;4996154;28;20030;-85
2021/07/25 12:02:39;;;;;;;6.53;4.55;;;;;;;16.16;83.86;90406.19;5011628;28;20025;-87
2021/07/25 12:05:15;;;;;;;5.53;4.05;;;;;;;16.21;83.84;90397.19;5012243;28;20026;-86
2021/07/25 12:07:53;;;;;;;6.13;4.30;;;;;;;16.27;83.28;90384.41;5011324;28;20099;-86
2021/07/25 12:10:37;;;;;;;6.25;4.00;;;;;;;16.27;82.24;90379.16;5012477;28;20229;-86
2021/07/25 12:13:09;;;;;;;6.10;3.85;;;;;;;16.32;82.99;90376.16;5011495;28;20030;-86
2021/07/25 12:15:50;;;;;;;5.47;3.70;;;;;;;16.51;83.28;90388.94;4995999;28;20025;-87
2021/07/25 12:18:36;;;;;;;5.53;3.90;;;;;;;16.63;83.48;90391.16;5027927;28;20036;-87
2021/07/25 12:21:08;;;;;;;5.75;3.92;;;;;;;16.86;82.27;90395.31;4980470;28;20116;-86